Time;durP1;ratioP1;P1;durP2;ratioP2;P2;SDS_P1;SDS_P2;PMS_P1;PMS_P2;Temp;Humidity;BMP_temperature;BMP_pressure;BME280_temperature;BME280_humidity;BME280_pressure;Samples;Min_cycle;Max_cycle;Signal;HPM_P1;HPM_P2
2022/05/26 00:01:16;;;;;;;;;;;;;;;31.93;23.81;100681.06;4418458;32;19993;-69
2022/05/26 00:03:43;;;;;;;;;;;;;;;32.08;23.58;100686.81;4420774;32;19992;-69
2022/05/26 00:06:10;;;;;;;;;;;;;;;31.81;23.81;100691.59;4414162;32;20025;-69
2022/05/26 00:08:36;;;;;;;;;;;;;;;32.14;23.53;100689.50;4417863;32;19969;-69
2022/05/26 00:11:03;;;;;;;;;;;;;;;31.79;23.87;100697.22;4419130;32;20026;-70
2022/05/26 00:13:28;;;;;;;;;;;;;;;31.76;23.86;100703.44;4404127;32;20294;-70
2022/05/26 00:15:54;;;;;;;;;;;;;;;31.89;23.59;100697.38;4418182;32;19964;-69
2022/05/26 00:18:20;;;;;;;;;;;;;;;32.34;22.99;100705.91;4415240;32;19972;-69
2022/05/26 00:20:45;;;;;;;;;;;;;;;31.93;23.43;100697.75;4416505;32;19969;-69
2022/05/26 00:23:11;;;;;;;;;;;;;;;32.32;22.85;100696.97;4415771;32;19965;-69
2022/05/26 00:25:36;;;;;;;;;;;;;;;32.52;22.73;100695.91;4417396;32;19957;-68
2022/05/26 00:28:03;;;;;;;;;;;;;;;32.60;22.47;100711.94;4417392;32;19993;-70
2022/05/26 00:30:28;;;;;;;;;;;;;;;32.54;22.48;100704.78;4417759;32;20644;-70
2022/05/26 00:32:54;;;;;;;;;;;;;;;32.01;23.29;100710.94;4417589;32;20023;-70
2022/05/26 00:35:19;;;;;;;;;;;;;;;32.77;22.53;100717.06;4417603;32;20291;-70
2022/05/26 00:37:45;;;;;;;;;;;;;;;32.59;22.53;100713.31;4416294;32;20000;-69
2022/05/26 00:40:13;;;;;;;;;;;;;;;33.03;21.92;100709.84;4416009;32;19990;-69
2022/05/26 00:42:40;;;;;;;;;;;;;;;33.13;21.89;100713.66;4416914;32;19998;-69
2022/05/26 00:45:07;;;;;;;;;;;;;;;33.06;21.88;100724.03;4417779;32;20427;-69
2022/05/26 00:47:35;;;;;;;;;;;;;;;32.77;22.07;100717.06;4414257;32;20009;-69
2022/05/26 00:50:03;;;;;;;;;;;;;;;32.93;22.09;100718.50;4418780;32;20054;-70
2022/05/26 00:52:32;;;;;;;;;;;;;;;32.76;22.36;100718.41;4418262;32;20011;-69
2022/05/26 00:55:00;;;;;;;;;;;;;;;32.57;22.08;100724.00;4414549;32;20012;-70
2022/05/26 00:57:43;;;;;;;;;;;;;;;32.65;22.12;100713.06;4418943;32;20101;-70
2022/05/26 01:00:12;;;;;;;;;;;;;;;32.66;22.27;100711.69;4420297;32;20423;-70
2022/05/26 01:02:43;;;;;;;;;;;;;;;32.95;21.87;100720.81;4416185;32;19985;-70
2022/05/26 01:05:14;;;;;;;;;;;;;;;32.64;22.18;100726.06;4415622;32;21098;-70
2022/05/26 01:07:40;;;;;;;;;;;;;;;32.30;22.49;100732.50;4416227;32;20063;-70
2022/05/26 01:10:07;;;;;;;;;;;;;;;32.39;22.42;100736.94;4417614;32;20005;-70
2022/05/26 01:12:33;;;;;;;;;;;;;;;32.47;22.22;100726.81;4417138;32;19994;-69
2022/05/26 01:15:03;;;;;;;;;;;;;;;32.52;22.09;100714.13;4416991;32;20043;-69
2022/05/26 01:25:38;;;;;;;;;;;;;;;32.78;21.99;100735.31;3950157;32;15727536;-69
2022/05/26 01:28:24;;;;;;;;;;;;;;;32.78;21.99;100735.31;4428282;32;19965;-69
2022/05/26 01:30:53;;;;;;;;;;;;;;;32.38;22.03;100732.50;4428752;32;20362;-70
2022/05/26 01:39:05;;;;;;;;;;;;;;;32.16;22.22;100730.44;3950481;32;15723173;-69
2022/05/26 01:41:45;;;;;;;;;;;;;;;32.01;22.39;100742.97;4429756;32;20000;-69
2022/05/26 01:46:47;;;;;;;;;;;;;;;31.93;22.42;100726.88;3949720;32;15723628;-70
2022/05/26 01:49:24;;;;;;;;;;;;;;;31.67;22.78;100728.13;4427061;32;19996;-69
2022/05/26 01:57:09;;;;;;;;;;;;;;;31.57;23.06;100721.34;3949205;32;15723520;-69
2022/05/26 01:59:42;;;;;;;;;;;;;;;31.57;23.06;100721.34;4432661;32;19957;-69
2022/05/26 02:02:14;;;;;;;;;;;;;;;31.11;23.34;100722.78;4426178;32;20630;-69
2022/05/26 02:04:42;;;;;;;;;;;;;;;31.55;22.87;100737.84;4424957;32;20408;-69
2022/05/26 02:07:18;;;;;;;;;;;;;;;31.00;23.34;100746.44;4421350;32;19997;-69
2022/05/26 02:09:44;;;;;;;;;;;;;;;31.62;22.88;100755.28;4430863;32;20016;-69
2022/05/26 02:12:14;;;;;;;;;;;;;;;31.62;22.71;100752.37;4427988;32;20346;-70
2022/05/26 02:17:22;;;;;;;;;;;;;;;31.40;23.10;100764.84;3948832;32;15723438;-69
2022/05/26 02:19:51;;;;;;;;;;;;;;;31.40;23.10;100764.84;4411866;32;20002;-69
2022/05/26 02:27:30;;;;;;;;;;;;;;;32.07;22.22;100778.44;3950830;32;15723635;-69
2022/05/26 02:29:59;;;;;;;;;;;;;;;32.07;22.22;100778.44;4427481;32;20343;-70
2022/05/26 02:32:28;;;;;;;;;;;;;;;31.29;22.83;100787.75;4430777;32;20003;-68
2022/05/26 02:34:56;;;;;;;;;;;;;;;31.80;22.41;100773.66;4427839;32;20016;-68
2022/05/26 02:37:22;;;;;;;;;;;;;;;31.47;22.63;100769.09;4424790;32;20254;-69
2022/05/26 02:39:47;;;;;;;;;;;;;;;31.51;22.57;100766.56;4424266;32;20045;-69
2022/05/26 02:42:13;;;;;;;;;;;;;;;31.73;22.47;100759.91;4426120;32;19961;-68
2022/05/26 02:44:41;;;;;;;;;;;;;;;31.27;22.92;100761.34;4427233;32;19969;-69
2022/05/26 02:52:47;;;;;;;;;;;;;;;31.19;23.27;100770.06;3958630;31;15717965;-70
2022/05/26 02:55:32;;;;;;;;;;;;;;;31.19;23.27;100770.06;4442550;32;19993;-69
2022/05/26 03:00:38;;;;;;;;;;;;;;;31.05;23.45;100757.09;3950325;32;15722331;-69
2022/05/26 03:03:21;;;;;;;;;;;;;;;31.05;23.45;100757.09;4427158;32;20013;-69
2022/05/26 03:05:50;;;;;;;;;;;;;;;30.62;23.75;100774.66;4426393;32;20029;-69
2022/05/26 03:08:19;;;;;;;;;;;;;;;30.63;23.69;100762.47;4426647;32;19973;-69
2022/05/26 03:10:49;;;;;;;;;;;;;;;30.18;24.35;100768.16;4426828;32;20366;-69
2022/05/26 03:13:14;;;;;;;;;;;;;;;30.41;23.92;100762.41;4426255;32;19992;-68
2022/05/26 03:15:40;;;;;;;;;;;;;;;30.48;23.89;100762.44;4424773;32;20397;-68
2022/05/26 03:18:06;;;;;;;;;;;;;;;30.35;24.06;100753.09;4427135;32;20291;-69
2022/05/26 03:20:32;;;;;;;;;;;;;;;30.27;24.17;100761.00;4425524;32;19957;-69
2022/05/26 03:22:57;;;;;;;;;;;;;;;29.77;24.85;100745.13;4424880;32;19996;-69
2022/05/26 03:25:23;;;;;;;;;;;;;;;29.40;25.34;100736.94;4427596;32;20035;-69
2022/05/26 03:27:49;;;;;;;;;;;;;;;29.87;24.71;100754.03;4429103;32;20448;-69
2022/05/26 03:30:14;;;;;;;;;;;;;;;29.54;25.10;100758.69;4428290;32;19989;-69
2022/05/26 03:32:41;;;;;;;;;;;;;;;30.13;24.45;100768.28;4424923;32;19999;-68
2022/05/26 03:41:09;;;;;;;;;;;;;;;29.48;25.37;100760.19;4427898;32;19985;-70
2022/05/26 03:43:28;;;;;;;;;;;;;;;29.97;24.67;100775.38;4426510;32;19968;-69
2022/05/26 03:45:53;;;;;;;;;;;;;;;29.80;24.98;100758.47;4425647;32;20034;-69
2022/05/26 03:48:19;;;;;;;;;;;;;;;29.26;25.72;100763.72;4424727;32;19997;-69
2022/05/26 03:50:45;;;;;;;;;;;;;;;29.61;25.18;100760.09;4426821;32;20328;-68
2022/05/26 03:53:10;;;;;;;;;;;;;;;29.13;25.77;100760.91;4426982;32;20383;-69
2022/05/26 03:55:36;;;;;;;;;;;;;;;29.12;25.89;100759.34;4425521;32;20681;-70
2022/05/26 03:58:03;;;;;;;;;;;;;;;29.78;25.07;100771.97;4425647;32;20094;-69
2022/05/26 04:00:29;;;;;;;;;;;;;;;29.98;24.59;100774.03;4426173;32;20014;-70
2022/05/26 04:02:57;;;;;;;;;;;;;;;29.79;24.77;100761.97;4428219;32;19949;-69
2022/05/26 04:05:23;;;;;;;;;;;;;;;29.56;25.21;100756.00;4422614;32;20319;-69
2022/05/26 04:07:48;;;;;;;;;;;;;;;29.38;25.58;100771.53;4425831;32;19990;-69
2022/05/26 04:10:15;;;;;;;;;;;;;;;29.97;24.62;100778.28;4424024;32;20379;-69
2022/05/26 04:12:42;;;;;;;;;;;;;;;30.21;24.41;100787.31;4415397;32;19957;-71
2022/05/26 04:15:08;;;;;;;;;;;;;;;30.22;24.42;100773.59;4415583;32;20008;-69
2022/05/26 04:17:34;;;;;;;;;;;;;;;30.25;24.52;100769.53;4416062;32;20001;-69
2022/05/26 04:19:59;;;;;;;;;;;;;;;30.10;24.52;100770.19;4413483;32;19958;-69
2022/05/26 04:22:25;;;;;;;;;;;;;;;30.02;24.77;100769.41;4416413;32;19965;-69
2022/05/26 04:24:53;;;;;;;;;;;;;;;30.41;24.12;100777.72;4413396;32;19953;-69
2022/05/26 04:27:20;;;;;;;;;;;;;;;29.98;24.50;100768.22;4413886;32;20008;-69
2022/05/26 04:29:46;;;;;;;;;;;;;;;30.32;24.30;100777.47;4416248;32;20039;-69
2022/05/26 04:32:11;;;;;;;;;;;;;;;30.36;24.14;100780.78;4413798;32;20096;-69
2022/05/26 04:34:37;;;;;;;;;;;;;;;30.69;23.73;100788.41;4414153;32;20000;-69
2022/05/26 04:37:03;;;;;;;;;;;;;;;30.82;23.23;100785.34;4415450;32;20389;-69
2022/05/26 04:39:28;;;;;;;;;;;;;;;30.56;23.76;100776.97;4417259;32;20234;-69
2022/05/26 04:41:57;;;;;;;;;;;;;;;30.61;23.58;100776.00;4412780;32;20056;-69
2022/05/26 04:44:23;;;;;;;;;;;;;;;30.93;23.28;100773.38;4414384;32;19993;-69
2022/05/26 04:46:48;;;;;;;;;;;;;;;30.48;23.77;100770.34;4413763;32;19993;-69
2022/05/26 04:49:14;;;;;;;;;;;;;;;31.15;23.14;100778.41;4414145;32;19972;-69
2022/05/26 04:51:40;;;;;;;;;;;;;;;31.12;22.85;100775.87;4415643;32;19961;-69
2022/05/26 04:54:07;;;;;;;;;;;;;;;30.33;23.61;100779.81;4413289;32;20404;-69
2022/05/26 04:56:33;;;;;;;;;;;;;;;31.18;22.71;100785.19;4414372;32;19949;-69
2022/05/26 04:58:58;;;;;;;;;;;;;;;31.07;22.88;100786.34;4413406;32;19949;-69
2022/05/26 05:01:24;;;;;;;;;;;;;;;31.23;22.92;100787.88;4416401;32;19992;-69
2022/05/26 05:03:49;;;;;;;;;;;;;;;31.26;22.89;100783.06;4415119;32;20006;-69
2022/05/26 05:06:16;;;;;;;;;;;;;;;31.21;22.94;100792.75;4412082;32;19993;-69
2022/05/26 05:08:42;;;;;;;;;;;;;;;31.50;22.68;100794.88;4417312;32;20371;-69
2022/05/26 05:11:08;;;;;;;;;;;;;;;31.41;22.79;100788.88;4418477;32;19989;-69
2022/05/26 05:13:34;;;;;;;;;;;;;;;30.96;23.06;100783.84;4413660;32;19957;-69
2022/05/26 05:16:03;;;;;;;;;;;;;;;30.99;23.22;100796.44;4416064;32;20013;-69
2022/05/26 05:18:29;;;;;;;;;;;;;;;31.29;22.63;100791.41;4415103;32;19999;-69
2022/05/26 05:20:57;;;;;;;;;;;;;;;31.15;22.98;100803.78;4416165;32;20648;-69
2022/05/26 05:23:23;;;;;;;;;;;;;;;31.39;22.90;100794.50;4412250;32;20020;-69
2022/05/26 05:25:50;;;;;;;;;;;;;;;31.20;23.08;100821.03;4415178;32;20314;-69
2022/05/26 05:28:23;;;;;;;;;;;;;;;31.36;22.83;100810.22;4414190;32;20464;-69
2022/05/26 05:30:52;;;;;;;;;;;;;;;31.44;22.75;100808.09;4414997;32;19980;-69
2022/05/26 05:33:21;;;;;;;;;;;;;;;31.57;22.80;100802.81;4415925;32;20211;-69
2022/05/26 05:35:50;;;;;;;;;;;;;;;31.25;22.99;100799.72;4415797;32;20387;-69
2022/05/26 05:38:16;;;;;;;;;;;;;;;31.51;22.85;100804.38;4413370;32;20056;-69
2022/05/26 05:40:42;;;;;;;;;;;;;;;31.88;22.39;100800.66;4416317;32;20031;-69
2022/05/26 05:43:08;;;;;;;;;;;;;;;31.77;22.58;100809.75;4412903;32;20385;-69
2022/05/26 05:45:33;;;;;;;;;;;;;;;31.07;23.25;100815.41;4416068;32;20339;-69
2022/05/26 05:47:59;;;;;;;;;;;;;;;31.11;23.60;100823.75;4415680;32;20037;-69
2022/05/26 05:50:24;;;;;;;;;;;;;;;31.34;23.13;100802.06;4414011;32;19961;-69
2022/05/26 05:52:49;;;;;;;;;;;;;;;31.36;23.19;100799.37;4412179;32;19957;-69
2022/05/26 05:55:15;;;;;;;;;;;;;;;30.91;23.61;100796.41;4412845;32;20299;-69
2022/05/26 05:57:41;;;;;;;;;;;;;;;30.86;23.75;100799.50;4411878;32;20405;-70
2022/05/26 06:00:08;;;;;;;;;;;;;;;31.46;23.10;100803.22;4413510;32;20414;-69
2022/05/26 06:02:33;;;;;;;;;;;;;;;31.12;23.50;100810.75;4414844;32;20038;-69
2022/05/26 06:04:59;;;;;;;;;;;;;;;30.80;23.72;100808.44;4412445;32;19957;-69
2022/05/26 06:07:25;;;;;;;;;;;;;;;31.25;23.66;100813.47;4412701;32;21001;-69
2022/05/26 06:09:51;;;;;;;;;;;;;;;31.76;22.94;100817.72;4414300;32;20377;-69
2022/05/26 06:12:17;;;;;;;;;;;;;;;32.13;22.53;100813.16;4413536;32;20296;-69
2022/05/26 06:14:43;;;;;;;;;;;;;;;31.33;23.06;100820.88;4413076;32;20294;-70
2022/05/26 06:17:09;;;;;;;;;;;;;;;31.84;22.72;100817.75;4414346;32;19992;-69
2022/05/26 06:19:36;;;;;;;;;;;;;;;31.84;22.75;100818.50;4411848;32;20385;-69
2022/05/26 06:22:05;;;;;;;;;;;;;;;32.48;22.08;100814.97;4411552;32;19949;-70
2022/05/26 06:24:31;;;;;;;;;;;;;;;32.40;22.14;100808.41;4410562;32;19981;-69
2022/05/26 06:26:56;;;;;;;;;;;;;;;31.88;22.86;100823.94;4411388;32;20405;-69
2022/05/26 06:29:53;;;;;;;;;;;;;;;31.66;23.18;100830.56;4412065;32;19984;-69
2022/05/26 06:37:38;;;;;;;;;;;;;;;32.05;23.25;100827.75;4406664;32;20270;-69
2022/05/26 06:40:05;;;;;;;;;;;;;;;31.81;23.61;100840.03;4406806;32;20264;-69
2022/05/26 06:42:30;;;;;;;;;;;;;;;32.01;23.69;100839.03;4408442;32;20027;-69
2022/05/26 06:44:56;;;;;;;;;;;;;;;31.86;24.03;100835.38;4405623;32;20359;-69
2022/05/26 06:47:22;;;;;;;;;;;;;;;31.48;24.44;100840.47;4399736;32;20043;-68
2022/05/26 06:49:48;;;;;;;;;;;;;;;32.05;23.98;100842.31;4410091;32;20208;-69
2022/05/26 06:52:14;;;;;;;;;;;;;;;31.02;25.07;100827.25;4408654;32;19975;-70
2022/05/26 06:54:44;;;;;;;;;;;;;;;31.36;24.97;100830.56;4410531;32;19968;-70
2022/05/26 06:57:10;;;;;;;;;;;;;;;31.31;25.79;100841.03;4401482;32;20007;-70
2022/05/26 06:59:36;;;;;;;;;;;;;;;31.73;25.37;100848.00;4409487;32;20000;-69
2022/05/26 07:02:02;;;;;;;;;;;;;;;31.58;25.65;100842.19;4408892;32;19949;-68
2022/05/26 07:04:28;;;;;;;;;;;;;;;31.59;25.83;100837.91;4408912;32;20028;-68
2022/05/26 07:06:54;;;;;;;;;;;;;;;32.27;24.99;100829.81;4403756;32;20371;-69
2022/05/26 07:09:21;;;;;;;;;;;;;;;32.87;24.12;100836.72;4406995;32;19962;-69
2022/05/26 07:11:46;;;;;;;;;;;;;;;32.96;23.49;100836.87;4408071;32;19966;-69
2022/05/26 07:14:12;;;;;;;;;;;;;;;33.63;22.54;100828.94;4408019;32;19993;-69
2022/05/26 07:16:38;;;;;;;;;;;;;;;32.60;23.45;100837.25;4401782;32;20054;-69
2022/05/26 07:19:03;;;;;;;;;;;;;;;32.91;23.00;100840.03;4398442;32;20274;-69
2022/05/26 07:21:29;;;;;;;;;;;;;;;33.37;22.47;100839.09;4407150;32;19980;-69
2022/05/26 07:23:55;;;;;;;;;;;;;;;32.92;22.86;100845.25;4403840;32;20075;-69
2022/05/26 07:26:21;;;;;;;;;;;;;;;32.50;23.30;100853.03;4406464;32;19981;-70
2022/05/26 07:28:46;;;;;;;;;;;;;;;32.36;23.60;100849.59;4402580;32;19989;-69
2022/05/26 07:31:13;;;;;;;;;;;;;;;32.15;24.07;100837.41;4405307;32;19989;-70
2022/05/26 07:33:38;;;;;;;;;;;;;;;32.98;23.59;100837.06;4404806;32;19989;-69
2022/05/26 07:36:04;;;;;;;;;;;;;;;32.21;24.52;100831.41;4406492;32;20065;-70
2022/05/26 07:41:19;;;;;;;;;;;;;;;31.57;26.01;100834.06;4405092;32;20013;-69
2022/05/26 07:43:47;;;;;;;;;;;;;;;31.11;26.64;100827.44;4404009;32;19954;-69
2022/05/26 07:46:13;;;;;;;;;;;;;;;31.03;27.01;100829.56;4408634;32;20117;-70
2022/05/26 07:48:39;;;;;;;;;;;;;;;31.41;26.61;100827.47;4409863;32;20433;-69
2022/05/26 07:51:04;;;;;;;;;;;;;;;31.37;26.77;100838.72;4409609;32;19994;-69
2022/05/26 07:53:30;;;;;;;;;;;;;;;30.77;27.46;100830.69;4408577;32;20004;-70
2022/05/26 07:55:55;;;;;;;;;;;;;;;31.11;26.86;100826.66;4407032;32;19993;-69
2022/05/26 07:58:21;;;;;;;;;;;;;;;31.31;26.82;100835.22;4407744;32;19976;-69
2022/05/26 08:00:46;;;;;;;;;;;;;;;31.16;26.67;100834.44;4412533;32;20001;-69
2022/05/26 08:03:12;;;;;;;;;;;;;;;31.20;26.74;100835.56;4410312;32;20347;-70
2022/05/26 08:05:39;;;;;;;;;;;;;;;31.34;26.68;100848.59;4413189;32;20321;-69
2022/05/26 08:08:05;;;;;;;;;;;;;;;31.32;26.77;100833.84;4409849;32;19975;-69
2022/05/26 08:10:31;;;;;;;;;;;;;;;31.46;26.34;100835.22;4414349;32;20000;-69
2022/05/26 08:12:56;;;;;;;;;;;;;;;31.65;26.09;100841.41;4409394;32;20030;-70
2022/05/26 08:15:22;;;;;;;;;;;;;;;31.71;25.94;100830.34;4408683;32;19981;-70
2022/05/26 08:17:47;;;;;;;;;;;;;;;31.49;26.23;100827.44;4406515;32;20011;-70
2022/05/26 08:20:13;;;;;;;;;;;;;;;32.28;25.31;100825.50;4409695;32;19985;-71
2022/05/26 08:22:39;;;;;;;;;;;;;;;32.53;24.91;100828.53;4409722;32;19998;-70
2022/05/26 08:25:05;;;;;;;;;;;;;;;32.50;25.02;100827.59;4410166;32;20114;-70
2022/05/26 08:27:31;;;;;;;;;;;;;;;31.77;25.53;100835.94;4410467;32;20000;-70
2022/05/26 08:29:59;;;;;;;;;;;;;;;32.30;25.17;100816.19;4410803;32;20000;-71
2022/05/26 08:32:27;;;;;;;;;;;;;;;32.56;24.75;100824.44;4409748;32;19985;-70
2022/05/26 08:34:57;;;;;;;;;;;;;;;32.63;24.66;100829.47;4409644;32;20041;-69
2022/05/26 08:37:23;;;;;;;;;;;;;;;32.12;25.60;100821.13;4410193;32;19957;-70
2022/05/26 08:39:49;;;;;;;;;;;;;;;32.77;24.94;100822.00;4411828;32;20256;-69
2022/05/26 08:42:18;;;;;;;;;;;;;;;32.99;24.58;100826.94;4410024;32;20301;-71
2022/05/26 08:44:44;;;;;;;;;;;;;;;33.04;24.60;100813.47;4410390;32;20315;-72
2022/05/26 08:47:12;;;;;;;;;;;;;;;32.91;24.58;100817.44;4411536;32;19965;-70
2022/05/26 08:49:40;;;;;;;;;;;;;;;33.62;23.75;100813.56;4410496;32;20447;-70
2022/05/26 08:52:14;;;;;;;;;;;;;;;33.69;23.46;100818.56;4411988;32;20406;-70
2022/05/26 08:57:20;;;;;;;;;;;;;;;33.90;23.65;100807.25;3960466;31;15717973;-69
2022/05/26 08:59:46;;;;;;;;;;;;;;;33.90;23.65;100807.25;4439222;32;19952;-69
2022/05/26 09:02:21;;;;;;;;;;;;;;;33.91;23.66;100808.03;4435733;32;19973;-70
2022/05/26 09:04:47;;;;;;;;;;;;;;;32.99;24.74;100805.72;4431936;32;20020;-69
2022/05/26 09:12:57;;;;;;;;;;;;;;;33.31;24.67;100832.69;4432422;32;20642;-69
2022/05/26 09:15:24;;;;;;;;;;;;;;;33.58;24.51;100827.03;4436273;32;20014;-69
2022/05/26 09:17:49;;;;;;;;;;;;;;;33.73;24.28;100838.56;4433214;32;19953;-69
2022/05/26 09:20:25;;;;;;;;;;;;;;;33.53;24.73;100831.72;4431415;32;20025;-69
2022/05/26 09:23:07;;;;;;;;;;;;;;;33.51;24.84;100825.75;4433070;32;19997;-70
2022/05/26 09:28:10;;;;;;;;;;;;;;;35.15;23.22;100826.44;3947438;32;15726113;-71
2022/05/26 09:30:36;;;;;;;;;;;;;;;35.15;23.22;100826.44;4426129;32;19982;-68
2022/05/26 09:33:02;;;;;;;;;;;;;;;34.08;24.09;100832.16;4422490;32;19989;-69
2022/05/26 09:35:32;;;;;;;;;;;;;;;34.38;23.96;100815.66;4421370;32;20788;-69
2022/05/26 09:38:00;;;;;;;;;;;;;;;34.97;23.47;100825.72;4421096;32;19993;-69
2022/05/26 09:43:04;;;;;;;;;;;;;;;34.00;24.77;100816.09;3947190;32;15722578;-70
2022/05/26 09:45:49;;;;;;;;;;;;;;;34.54;24.54;100820.66;4416177;32;20017;-70
2022/05/26 09:48:18;;;;;;;;;;;;;;;34.24;24.65;100833.50;4414805;32;19995;-70
2022/05/26 09:50:48;;;;;;;;;;;;;;;33.74;25.44;100825.50;4417751;32;20221;-70
2022/05/26 09:53:26;;;;;;;;;;;;;;;34.39;24.78;100832.59;4414808;32;20383;-70
2022/05/26 09:55:54;;;;;;;;;;;;;;;35.14;23.59;100819.00;4415901;32;19964;-69
2022/05/26 09:58:28;;;;;;;;;;;;;;;34.40;24.47;100822.44;4414182;32;19957;-69
2022/05/26 10:00:57;;;;;;;;;;;;;;;34.89;23.71;100757.03;4416624;32;20378;-69
2022/05/26 10:09:03;;;;;;;;;;;;;;;35.79;24.00;100811.81;3946743;32;15722565;-69
2022/05/26 10:14:27;;;;;;;;;;;;;;;36.16;23.34;100813.25;3945206;32;15722383;-70
2022/05/26 10:16:58;;;;;;;;;;;;;;;35.44;23.81;100806.81;4420804;32;19999;-70
2022/05/26 10:22:23;;;;;;;;;;;;;;;36.49;22.68;100812.75;3952776;32;15722493;-70
2022/05/26 10:25:02;;;;;;;;;;;;;;;36.49;22.68;100812.75;4430829;32;20455;-70
2022/05/26 10:27:50;;;;;;;;;;;;;;;36.02;22.93;100800.44;4434402;32;20366;-70
2022/05/26 10:33:14;;;;;;;;;;;;;;;35.76;22.94;100791.78;3944538;32;15739349;-70
2022/05/26 10:36:00;;;;;;;;;;;;;;;35.76;22.94;100791.78;4417664;32;19985;-70
2022/05/26 10:38:43;;;;;;;;;;;;;;;35.96;22.72;100799.97;4420102;32;19957;-70
2022/05/26 10:41:23;;;;;;;;;;;;;;;36.20;22.28;100801.06;4409319;32;19997;-69
2022/05/26 10:43:53;;;;;;;;;;;;;;;35.54;22.85;100799.63;4417597;32;19972;-70
2022/05/26 10:46:19;;;;;;;;;;;;;;;35.82;22.49;100824.50;4423449;32;20031;-70
2022/05/26 10:51:37;;;;;;;;;;;;;;;36.29;22.17;100788.59;3947946;32;15726717;-70
2022/05/26 10:54:06;;;;;;;;;;;;;;;36.29;22.17;100788.59;4428747;32;19954;-71
2022/05/26 10:56:39;;;;;;;;;;;;;;;36.27;22.12;100806.00;4432335;32;19997;-70
2022/05/26 11:01:45;;;;;;;;;;;;;;;35.20;23.51;100804.88;3947153;32;15728850;-70
2022/05/26 11:07:05;;;;;;;;;;;;;;;35.78;22.72;100819.06;3946596;32;15722484;-70
2022/05/26 11:09:36;;;;;;;;;;;;;;;35.78;22.72;100819.06;4420539;32;19993;-70
2022/05/26 11:12:13;;;;;;;;;;;;;;;36.04;22.30;100812.31;4419406;32;20007;-70
2022/05/26 11:20:09;;;;;;;;;;;;;;;36.66;21.95;100813.37;3945843;32;15752219;-70
2022/05/26 11:22:35;;;;;;;;;;;;;;;36.66;21.95;100813.37;4416290;32;20665;-70
2022/05/26 11:25:01;;;;;;;;;;;;;;;36.97;21.20;100816.37;4417531;32;19954;-70
2022/05/26 11:30:05;;;;;;;;;;;;;;;38.55;19.79;100801.09;3944927;32;15728812;-70
2022/05/26 11:38:01;;;;;;;;;;;;;;;37.77;20.24;100786.91;3950441;31;15716358;-71
2022/05/26 11:40:30;;;;;;;;;;;;;;;36.64;21.07;100791.91;4418201;32;20339;-69
2022/05/26 11:42:58;;;;;;;;;;;;;;;38.15;19.96;100782.91;4410671;32;20012;-70
2022/05/26 11:45:26;;;;;;;;;;;;;;;38.61;19.52;100789.72;4417235;32;20016;-70
2022/05/26 11:50:29;;;;;;;;;;;;;;;38.66;19.33;100812.12;3944896;32;15723877;-71
2022/05/26 11:58:17;;;;;;;;;;;;;;;38.31;19.60;100784.00;3945442;32;15723254;-71
2022/05/26 12:00:45;;;;;;;;;;;;;;;38.31;19.60;100784.00;4417240;32;19994;-70
2022/05/26 12:03:27;;;;;;;;;;;;;;;37.84;19.92;100794.75;4418291;32;20009;-69
2022/05/26 12:11:15;;;;;;;;;;;;;;;37.29;21.09;100809.91;3946620;32;15722570;-71
2022/05/26 12:13:41;;;;;;;;;;;;;;;37.29;21.09;100809.91;4418233;32;21035;-71
2022/05/26 12:16:27;;;;;;;;;;;;;;;36.63;21.47;100791.16;4421974;32;20398;-72
2022/05/26 12:24:23;;;;;;;;;;;;;;;36.15;21.99;100814.66;3934014;32;15727387;-72
2022/05/26 12:26:50;;;;;;;;;;;;;;;36.15;21.99;100814.66;4416736;32;20310;-71
2022/05/26 12:29:36;;;;;;;;;;;;;;;36.24;21.78;100807.22;4421830;32;19945;-71
2022/05/26 12:32:06;;;;;;;;;;;;;;;36.73;21.35;100796.97;4419177;32;19977;-71
2022/05/26 12:34:38;;;;;;;;;;;;;;;35.72;22.59;100798.09;4418764;32;20342;-71
2022/05/26 12:37:06;;;;;;;;;;;;;;;36.96;21.34;100806.78;4416955;32;20839;-72
2022/05/26 12:39:43;;;;;;;;;;;;;;;37.61;20.59;100809.28;4420324;32;19961;-70
2022/05/26 12:45:02;;;;;;;;;;;;;;;38.32;20.12;100820.81;3943627;32;15715793;-71
2022/05/26 13:05:58;;;;;;;;;;;;;;;38.23;20.00;100819.50;3943732;32;15723593;-70
2022/05/26 13:08:25;;;;;;;;;;;;;;;37.16;21.14;100817.06;4419148;32;20712;-71
2022/05/26 13:10:54;;;;;;;;;;;;;;;36.70;21.61;100822.47;4407738;32;20377;-70
2022/05/26 13:13:24;;;;;;;;;;;;;;;35.81;23.81;100828.81;4421646;32;20367;-71
2022/05/26 13:15:50;;;;;;;;;;;;;;;35.69;24.36;100830.75;4421061;32;19989;-71
2022/05/26 13:18:17;;;;;;;;;;;;;;;35.65;25.25;100816.56;4419243;32;20015;-69
2022/05/26 13:20:42;;;;;;;;;;;;;;;34.42;26.41;100814.59;4420330;32;19979;-70
2022/05/26 13:23:09;;;;;;;;;;;;;;;34.76;26.68;100836.38;4414693;32;20540;-72
2022/05/26 13:25:35;;;;;;;;;;;;;;;34.61;26.45;100830.72;4417980;32;20317;-68
2022/05/26 13:28:03;;;;;;;;;;;;;;;33.51;27.96;100831.56;4418742;32;20097;-69
2022/05/26 13:33:22;;;;;;;;;;;;;;;34.71;27.52;100846.94;4415639;32;20066;-68
2022/05/26 13:35:51;;;;;;;;;;;;;;;34.84;27.54;100846.56;4417993;32;20009;-68
2022/05/26 13:38:18;;;;;;;;;;;;;;;34.10;28.96;100849.06;4420173;32;19989;-68
2022/05/26 13:40:44;;;;;;;;;;;;;;;34.35;29.08;100840.97;4419801;32;19981;-67
2022/05/26 13:43:11;;;;;;;;;;;;;;;34.60;28.55;100852.56;4417513;32;19999;-67
2022/05/26 13:45:37;;;;;;;;;;;;;;;34.44;29.19;100857.84;4405135;32;20031;-67
2022/05/26 13:48:22;;;;;;;;;;;;;;;34.83;28.66;100847.94;4417317;32;20025;-67
2022/05/26 13:50:50;;;;;;;;;;;;;;;33.92;29.02;100856.28;4418225;32;20074;-67
2022/05/26 13:53:17;;;;;;;;;;;;;;;34.69;28.76;100831.41;4419327;32;20357;-68
2022/05/26 13:55:44;;;;;;;;;;;;;;;35.02;27.72;100836.38;4417974;32;19989;-68
2022/05/26 13:58:10;;;;;;;;;;;;;;;35.82;27.00;100842.06;4411541;32;20028;-69
2022/05/26 14:00:37;;;;;;;;;;;;;;;35.32;27.08;100850.53;4420972;32;20005;-68
2022/05/26 14:03:05;;;;;;;;;;;;;;;35.88;26.68;100843.31;4416563;32;20342;-69
2022/05/26 14:05:32;;;;;;;;;;;;;;;37.02;27.26;100830.72;4420860;32;19958;-69
2022/05/26 14:15:52;;;;;;;;;;;;;;;39.23;22.05;100829.09;3960664;31;15714654;-70
2022/05/26 14:18:20;;;;;;;;;;;;;;;39.23;22.05;100829.09;4432564;32;20354;-71
2022/05/26 14:20:54;;;;;;;;;;;;;;;40.35;20.97;100834.59;4433130;32;21354;-71
2022/05/26 14:23:20;;;;;;;;;;;;;;;41.40;20.31;100845.09;4433006;32;19978;-71
2022/05/26 14:25:55;;;;;;;;;;;;;;;41.95;19.48;100843.72;4433726;32;19965;-71
2022/05/26 14:28:28;;;;;;;;;;;;;;;41.33;19.83;100846.19;4432638;32;20011;-71
2022/05/26 14:30:55;;;;;;;;;;;;;;;41.11;19.29;100850.87;4432985;32;20311;-72
2022/05/26 14:33:22;;;;;;;;;;;;;;;40.59;20.11;100844.88;4434883;32;19998;-71
2022/05/26 14:35:48;;;;;;;;;;;;;;;39.77;20.59;100845.72;4431646;32;19994;-71
2022/05/26 14:38:14;;;;;;;;;;;;;;;38.93;22.09;100853.63;4433957;32;20352;-71
2022/05/26 14:40:40;;;;;;;;;;;;;;;38.41;22.46;100853.06;4435752;32;20350;-71
2022/05/26 14:43:07;;;;;;;;;;;;;;;37.37;23.59;100851.59;4435035;32;20342;-70
2022/05/26 14:45:33;;;;;;;;;;;;;;;35.70;24.88;100841.09;4432031;32;20348;-70
2022/05/26 14:47:59;;;;;;;;;;;;;;;35.72;25.12;100859.59;4430886;32;20000;-69
2022/05/26 14:50:25;;;;;;;;;;;;;;;35.53;25.87;100847.06;4429220;32;19967;-69
2022/05/26 14:52:51;;;;;;;;;;;;;;;35.04;26.68;100854.09;4432818;32;20396;-69
2022/05/26 14:55:27;;;;;;;;;;;;;;;35.10;27.16;100860.44;4435634;32;20353;-69
2022/05/26 14:57:55;;;;;;;;;;;;;;;34.72;27.45;100857.25;4425494;32;20030;-69
2022/05/26 15:00:23;;;;;;;;;;;;;;;34.94;27.94;100862.03;4437415;32;19996;-68
2022/05/26 15:02:49;;;;;;;;;;;;;;;34.51;27.86;100871.56;4435291;32;20000;-68
2022/05/26 15:05:15;;;;;;;;;;;;;;;34.15;28.81;100865.59;4434985;32;21521;-68
2022/05/26 15:07:41;;;;;;;;;;;;;;;34.55;28.32;100860.25;4437824;32;20009;-68
2022/05/26 15:10:08;;;;;;;;;;;;;;;35.09;27.69;100870.59;4426480;32;19965;-68